Westborough, MA (01582)

4:11 PM EST on March 04, 2015 (GMT -0500)
Northbridge | Change Station
CLOSE
Current Station
Personal Weather Station
Location: Northbridge, MA
Elevation: 463 ft
Nearby Weather Stations

Elev 463 ft 42.16 °N, 71.68 °W | Updated 1 minute ago

Mostly Cloudy
Mostly Cloudy
40.8 °F
Feels Like 41 °F
N
2.2
Wind Variable Wind from West

Today
High -- | Low -- °F
--% Chance of Precip.
Yesterday
High -- | Low -- °F
Precip. -- in
6:17 AM 5:39 PM
Waxing Gibbous, 99% visible
Pressure 29.80 in
Visibility 10.0 miles
Clouds Clear
Windchill 41 °F
Dew Point 31 °F
Humidity 67%
Rainfall 0.59 in
Snow Depth Not available.
UV 1 out of 12
Pollen .90 out of 12
Air Quality Not available.
Flu Activity Not available.
METAR KORH 042054Z AUTO 28012G21KT 10SM CLR 03/M03 A2976 RMK AO2 SLP089 T00331028 53009

More Conditions Fewer Conditions

Pressure 29.80 in
Visibility 10.0 miles
Clouds Clear
Windchill 41 °F
Dew Point 31 °F
Humidity 67%
Rainfall 0.59 in
Snow Depth Not available.
UV 1 out of 12
Pollen .90 out of 12
Air Quality Not available.
Flu Activity Not available.
METAR KORH 042054Z AUTO 28012G21KT 10SM CLR 03/M03 A2976 RMK AO2 SLP089 T00331028 53009

More Conditions Fewer Conditions

10-Day Weather Forecast

Almanac

Astronomy

Mar. 04, 2015 Rise Set
Actual Time
Civil Twilight
Nautical Twilight
Astronomical Twilight
Moon
Length of Visible Light
Length of Day
Tomorrow will be .
, % of the Moon is Illuminated

Today's Extremes

State Highs State Lows

Community

WunderPhotos

Upload Photos

1,802,586 photos uploaded!

WunderBlogs® & News

Nearby

Air Quality

  Air Quality AQ Index Pollutant
Not available.

Snow Depth

Station Depth Elevation

Earthquake Activity

City Distance Mag. Time & Date
Minimum magnitude displayed is 2.5.

Coastal Water Temperatures

Place Temperature

Nearby Weather Stations